sensor_id;sensor_type;location;lat;lon;timestamp;P1;durP1;ratioP1;P2;durP2;ratioP2
45368;SDS011;51342;55.250;37.668;2023-04-23T00:03:36;15.57;;;8.83;;
45368;SDS011;51342;55.250;37.668;2023-04-23T00:06:12;13.10;;;8.80;;
45368;SDS011;51342;55.250;37.668;2023-04-23T00:08:44;14.53;;;8.30;;
45368;SDS011;51342;55.250;37.668;2023-04-23T00:11:16;13.77;;;8.53;;
45368;SDS011;51342;55.250;37.668;2023-04-23T00:13:48;16.87;;;9.73;;
45368;SDS011;51342;55.250;37.668;2023-04-23T00:16:20;17.27;;;9.90;;
45368;SDS011;51342;55.250;37.668;2023-04-23T00:18:51;14.13;;;10.00;;
45368;SDS011;51342;55.250;37.668;2023-04-23T00:21:23;15.63;;;9.40;;
45368;SDS011;51342;55.250;37.668;2023-04-23T00:23:54;18.43;;;10.43;;
45368;SDS011;51342;55.250;37.668;2023-04-23T00:26:26;17.40;;;9.53;;
45368;SDS011;51342;55.250;37.668;2023-04-23T00:28:57;19.90;;;9.87;;
45368;SDS011;51342;55.250;37.668;2023-04-23T00:31:29;17.70;;;10.17;;
45368;SDS011;51342;55.250;37.668;2023-04-23T00:34:01;17.03;;;9.60;;
45368;SDS011;51342;55.250;37.668;2023-04-23T00:36:32;19.57;;;9.97;;
45368;SDS011;51342;55.250;37.668;2023-04-23T00:39:04;18.23;;;10.67;;
45368;SDS011;51342;55.250;37.668;2023-04-23T00:41:35;19.73;;;10.87;;
45368;SDS011;51342;55.250;37.668;2023-04-23T00:44:07;17.50;;;9.93;;
45368;SDS011;51342;55.250;37.668;2023-04-23T00:46:38;16.37;;;10.63;;
45368;SDS011;51342;55.250;37.668;2023-04-23T00:49:10;17.43;;;10.17;;
45368;SDS011;51342;55.250;37.668;2023-04-23T00:51:44;20.03;;;11.00;;
45368;SDS011;51342;55.250;37.668;2023-04-23T00:54:16;14.90;;;10.23;;
45368;SDS011;51342;55.250;37.668;2023-04-23T00:56:47;17.27;;;10.87;;
45368;SDS011;51342;55.250;37.668;2023-04-23T00:59:21;15.73;;;10.27;;
45368;SDS011;51342;55.250;37.668;2023-04-23T01:01:53;15.83;;;10.33;;
45368;SDS011;51342;55.250;37.668;2023-04-23T01:04:26;18.73;;;11.03;;
45368;SDS011;51342;55.250;37.668;2023-04-23T01:07:00;17.87;;;10.77;;
45368;SDS011;51342;55.250;37.668;2023-04-23T01:09:33;16.03;;;9.83;;
45368;SDS011;51342;55.250;37.668;2023-04-23T01:12:05;15.77;;;10.67;;
45368;SDS011;51342;55.250;37.668;2023-04-23T01:14:36;18.00;;;9.37;;
45368;SDS011;51342;55.250;37.668;2023-04-23T01:17:08;18.07;;;10.53;;
45368;SDS011;51342;55.250;37.668;2023-04-23T01:19:42;17.43;;;11.00;;
45368;SDS011;51342;55.250;37.668;2023-04-23T01:22:14;16.77;;;10.77;;
45368;SDS011;51342;55.250;37.668;2023-04-23T01:24:46;18.30;;;10.67;;
45368;SDS011;51342;55.250;37.668;2023-04-23T01:27:18;17.33;;;11.17;;
45368;SDS011;51342;55.250;37.668;2023-04-23T01:29:52;19.83;;;12.20;;
45368;SDS011;51342;55.250;37.668;2023-04-23T01:32:23;21.30;;;12.13;;
45368;SDS011;51342;55.250;37.668;2023-04-23T01:34:55;23.30;;;12.33;;
45368;SDS011;51342;55.250;37.668;2023-04-23T01:37:28;20.23;;;12.53;;
45368;SDS011;51342;55.250;37.668;2023-04-23T01:40:00;18.50;;;12.33;;
45368;SDS011;51342;55.250;37.668;2023-04-23T01:42:31;20.80;;;11.97;;
45368;SDS011;51342;55.250;37.668;2023-04-23T01:45:03;16.97;;;10.77;;
45368;SDS011;51342;55.250;37.668;2023-04-23T01:47:37;21.17;;;10.60;;
45368;SDS011;51342;55.250;37.668;2023-04-23T01:50:10;15.90;;;10.20;;
45368;SDS011;51342;55.250;37.668;2023-04-23T01:52:41;15.93;;;9.87;;
45368;SDS011;51342;55.250;37.668;2023-04-23T01:55:14;13.83;;;8.80;;
45368;SDS011;51342;55.250;37.668;2023-04-23T01:57:46;15.97;;;9.50;;
45368;SDS011;51342;55.250;37.668;2023-04-23T02:00:17;14.37;;;8.63;;
45368;SDS011;51342;55.250;37.668;2023-04-23T02:02:50;13.83;;;8.30;;
45368;SDS011;51342;55.250;37.668;2023-04-23T02:05:23;15.87;;;8.90;;
45368;SDS011;51342;55.250;37.668;2023-04-23T02:07:55;13.77;;;8.60;;
45368;SDS011;51342;55.250;37.668;2023-04-23T02:10:27;12.50;;;9.03;;
45368;SDS011;51342;55.250;37.668;2023-04-23T02:13:00;17.20;;;9.93;;
45368;SDS011;51342;55.250;37.668;2023-04-23T02:15:32;14.87;;;8.70;;
45368;SDS011;51342;55.250;37.668;2023-04-23T02:18:04;18.07;;;9.97;;
45368;SDS011;51342;55.250;37.668;2023-04-23T02:20:36;12.90;;;8.77;;
45368;SDS011;51342;55.250;37.668;2023-04-23T02:23:11;14.03;;;9.00;;
45368;SDS011;51342;55.250;37.668;2023-04-23T02:25:42;9.67;;;7.47;;
45368;SDS011;51342;55.250;37.668;2023-04-23T02:28:14;13.40;;;8.30;;
45368;SDS011;51342;55.250;37.668;2023-04-23T02:30:45;15.00;;;7.80;;
45368;SDS011;51342;55.250;37.668;2023-04-23T02:33:17;12.50;;;8.13;;
45368;SDS011;51342;55.250;37.668;2023-04-23T02:35:49;11.80;;;8.37;;
45368;SDS011;51342;55.250;37.668;2023-04-23T02:38:21;15.27;;;7.77;;
45368;SDS011;51342;55.250;37.668;2023-04-23T02:40:53;13.47;;;9.03;;
45368;SDS011;51342;55.250;37.668;2023-04-23T02:43:25;12.83;;;8.00;;
45368;SDS011;51342;55.250;37.668;2023-04-23T02:45:56;13.80;;;8.70;;
45368;SDS011;51342;55.250;37.668;2023-04-23T02:48:28;12.67;;;8.70;;
45368;SDS011;51342;55.250;37.668;2023-04-23T02:50:59;14.07;;;8.90;;
45368;SDS011;51342;55.250;37.668;2023-04-23T02:53:32;14.90;;;8.77;;
45368;SDS011;51342;55.250;37.668;2023-04-23T02:56:04;15.27;;;9.70;;
45368;SDS011;51342;55.250;37.668;2023-04-23T02:58:38;14.97;;;9.90;;
45368;SDS011;51342;55.250;37.668;2023-04-23T03:01:09;13.00;;;9.43;;
45368;SDS011;51342;55.250;37.668;2023-04-23T03:03:41;13.33;;;8.33;;
45368;SDS011;51342;55.250;37.668;2023-04-23T03:06:13;12.83;;;8.73;;
45368;SDS011;51342;55.250;37.668;2023-04-23T03:08:44;12.80;;;8.20;;
45368;SDS011;51342;55.250;37.668;2023-04-23T03:11:16;15.87;;;8.97;;
45368;SDS011;51342;55.250;37.668;2023-04-23T03:13:48;11.97;;;8.07;;
45368;SDS011;51342;55.250;37.668;2023-04-23T03:16:19;9.20;;;6.50;;
45368;SDS011;51342;55.250;37.668;2023-04-23T03:18:51;11.20;;;7.10;;
45368;SDS011;51342;55.250;37.668;2023-04-23T03:21:22;10.20;;;6.97;;
45368;SDS011;51342;55.250;37.668;2023-04-23T03:23:54;12.30;;;6.83;;
45368;SDS011;51342;55.250;37.668;2023-04-23T03:26:27;9.83;;;7.33;;
45368;SDS011;51342;55.250;37.668;2023-04-23T03:28:58;12.27;;;7.30;;
45368;SDS011;51342;55.250;37.668;2023-04-23T03:31:30;9.87;;;6.40;;
45368;SDS011;51342;55.250;37.668;2023-04-23T03:34:01;9.60;;;6.10;;
45368;SDS011;51342;55.250;37.668;2023-04-23T03:36:37;9.77;;;6.63;;
45368;SDS011;51342;55.250;37.668;2023-04-23T03:39:11;10.53;;;6.80;;
45368;SDS011;51342;55.250;37.668;2023-04-23T03:41:54;11.47;;;6.30;;
45368;SDS011;51342;55.250;37.668;2023-04-23T03:44:31;11.52;;;6.50;;
45368;SDS011;51342;55.250;37.668;2023-04-23T03:47:03;9.40;;;6.40;;
45368;SDS011;51342;55.250;37.668;2023-04-23T03:49:36;9.40;;;6.03;;
45368;SDS011;51342;55.250;37.668;2023-04-23T03:52:08;8.90;;;5.70;;
45368;SDS011;51342;55.250;37.668;2023-04-23T03:54:42;11.40;;;7.80;;
45368;SDS011;51342;55.250;37.668;2023-04-23T03:57:21;8.73;;;6.37;;
45368;SDS011;51342;55.250;37.668;2023-04-23T04:00:15;12.80;;;7.53;;
45368;SDS011;51342;55.250;37.668;2023-04-23T04:02:47;12.17;;;7.70;;
45368;SDS011;51342;55.250;37.668;2023-04-23T04:05:19;10.47;;;7.67;;
45368;SDS011;51342;55.250;37.668;2023-04-23T04:08:07;9.53;;;7.10;;
45368;SDS011;51342;55.250;37.668;2023-04-23T04:10:38;10.23;;;7.07;;
45368;SDS011;51342;55.250;37.668;2023-04-23T04:13:10;9.17;;;6.87;;
45368;SDS011;51342;55.250;37.668;2023-04-23T04:15:42;10.07;;;7.33;;
45368;SDS011;51342;55.250;37.668;2023-04-23T04:18:13;9.63;;;7.13;;
45368;SDS011;51342;55.250;37.668;2023-04-23T04:20:45;11.30;;;7.60;;
45368;SDS011;51342;55.250;37.668;2023-04-23T04:23:17;11.10;;;6.77;;
45368;SDS011;51342;55.250;37.668;2023-04-23T04:25:48;9.97;;;6.40;;
45368;SDS011;51342;55.250;37.668;2023-04-23T04:28:21;10.40;;;6.83;;
45368;SDS011;51342;55.250;37.668;2023-04-23T04:30:55;10.33;;;5.90;;
45368;SDS011;51342;55.250;37.668;2023-04-23T04:33:27;9.10;;;6.03;;
45368;SDS011;51342;55.250;37.668;2023-04-23T04:35:59;9.37;;;5.80;;
45368;SDS011;51342;55.250;37.668;2023-04-23T04:38:30;8.10;;;6.00;;
45368;SDS011;51342;55.250;37.668;2023-04-23T04:41:02;8.07;;;5.87;;
45368;SDS011;51342;55.250;37.668;2023-04-23T04:43:33;7.00;;;5.40;;
45368;SDS011;51342;55.250;37.668;2023-04-23T04:46:05;7.17;;;4.83;;
45368;SDS011;51342;55.250;37.668;2023-04-23T04:48:36;6.80;;;4.93;;
45368;SDS011;51342;55.250;37.668;2023-04-23T04:51:08;7.40;;;4.67;;
45368;SDS011;51342;55.250;37.668;2023-04-23T04:53:40;6.63;;;4.73;;
45368;SDS011;51342;55.250;37.668;2023-04-23T04:56:11;5.27;;;4.47;;
45368;SDS011;51342;55.250;37.668;2023-04-23T04:58:42;6.47;;;4.68;;
45368;SDS011;51342;55.250;37.668;2023-04-23T05:01:26;7.43;;;4.18;;
45368;SDS011;51342;55.250;37.668;2023-04-23T05:03:59;4.85;;;3.80;;
45368;SDS011;51342;55.250;37.668;2023-04-23T05:06:30;11.32;;;3.83;;
45368;SDS011;51342;55.250;37.668;2023-04-23T05:09:02;9.73;;;4.72;;
45368;SDS011;51342;55.250;37.668;2023-04-23T05:11:33;7.65;;;4.70;;
45368;SDS011;51342;55.250;37.668;2023-04-23T05:14:05;8.27;;;4.10;;
45368;SDS011;51342;55.250;37.668;2023-04-23T05:16:37;7.57;;;4.53;;
45368;SDS011;51342;55.250;37.668;2023-04-23T05:19:08;5.55;;;4.55;;
45368;SDS011;51342;55.250;37.668;2023-04-23T05:21:40;7.78;;;5.15;;
45368;SDS011;51342;55.250;37.668;2023-04-23T05:24:12;8.43;;;5.60;;
45368;SDS011;51342;55.250;37.668;2023-04-23T05:26:43;8.63;;;5.53;;
45368;SDS011;51342;55.250;37.668;2023-04-23T05:29:15;6.85;;;5.55;;
45368;SDS011;51342;55.250;37.668;2023-04-23T05:31:49;8.18;;;6.00;;
45368;SDS011;51342;55.250;37.668;2023-04-23T05:34:20;10.73;;;7.22;;
45368;SDS011;51342;55.250;37.668;2023-04-23T05:36:51;9.52;;;4.88;;
45368;SDS011;51342;55.250;37.668;2023-04-23T05:39:23;5.65;;;4.30;;
45368;SDS011;51342;55.250;37.668;2023-04-23T05:41:54;6.53;;;3.60;;
45368;SDS011;51342;55.250;37.668;2023-04-23T05:44:26;6.35;;;3.65;;
45368;SDS011;51342;55.250;37.668;2023-04-23T05:46:57;4.82;;;3.00;;
45368;SDS011;51342;55.250;37.668;2023-04-23T05:49:29;4.30;;;3.08;;
45368;SDS011;51342;55.250;37.668;2023-04-23T05:52:01;4.72;;;2.63;;
45368;SDS011;51342;55.250;37.668;2023-04-23T05:54:33;3.97;;;2.38;;
45368;SDS011;51342;55.250;37.668;2023-04-23T05:57:04;3.47;;;2.25;;
45368;SDS011;51342;55.250;37.668;2023-04-23T05:59:35;3.45;;;2.20;;
45368;SDS011;51342;55.250;37.668;2023-04-23T06:02:08;5.50;;;2.78;;
45368;SDS011;51342;55.250;37.668;2023-04-23T06:04:40;5.38;;;2.20;;
45368;SDS011;51342;55.250;37.668;2023-04-23T06:07:12;5.38;;;2.70;;
45368;SDS011;51342;55.250;37.668;2023-04-23T06:09:45;6.55;;;2.42;;
45368;SDS011;51342;55.250;37.668;2023-04-23T06:12:16;4.13;;;2.28;;
45368;SDS011;51342;55.250;37.668;2023-04-23T06:14:48;5.28;;;2.08;;
45368;SDS011;51342;55.250;37.668;2023-04-23T06:17:19;4.78;;;2.30;;
45368;SDS011;51342;55.250;37.668;2023-04-23T06:19:50;4.78;;;2.20;;
45368;SDS011;51342;55.250;37.668;2023-04-23T06:22:22;3.90;;;2.00;;
45368;SDS011;51342;55.250;37.668;2023-04-23T06:24:53;2.85;;;1.65;;
45368;SDS011;51342;55.250;37.668;2023-04-23T06:27:25;3.83;;;2.10;;
45368;SDS011;51342;55.250;37.668;2023-04-23T06:29:58;2.72;;;1.98;;
45368;SDS011;51342;55.250;37.668;2023-04-23T06:32:30;4.10;;;1.70;;
45368;SDS011;51342;55.250;37.668;2023-04-23T06:35:01;2.13;;;1.40;;
45368;SDS011;51342;55.250;37.668;2023-04-23T06:37:34;2.60;;;1.40;;
45368;SDS011;51342;55.250;37.668;2023-04-23T06:40:05;2.65;;;2.03;;
45368;SDS011;51342;55.250;37.668;2023-04-23T06:42:37;4.15;;;1.80;;
45368;SDS011;51342;55.250;37.668;2023-04-23T06:45:40;3.08;;;1.73;;
45368;SDS011;51342;55.250;37.668;2023-04-23T06:48:12;2.47;;;1.50;;
45368;SDS011;51342;55.250;37.668;2023-04-23T06:50:43;2.40;;;1.50;;
45368;SDS011;51342;55.250;37.668;2023-04-23T06:53:15;2.65;;;1.50;;
45368;SDS011;51342;55.250;37.668;2023-04-23T06:55:46;2.92;;;1.85;;
45368;SDS011;51342;55.250;37.668;2023-04-23T06:58:19;3.83;;;1.30;;
45368;SDS011;51342;55.250;37.668;2023-04-23T07:00:53;1.92;;;1.40;;
45368;SDS011;51342;55.250;37.668;2023-04-23T07:03:28;3.03;;;1.60;;
45368;SDS011;51342;55.250;37.668;2023-04-23T07:06:00;1.73;;;1.02;;
45368;SDS011;51342;55.250;37.668;2023-04-23T07:08:32;2.63;;;1.20;;
45368;SDS011;51342;55.250;37.668;2023-04-23T07:11:03;1.60;;;1.13;;
45368;SDS011;51342;55.250;37.668;2023-04-23T07:13:35;4.47;;;1.50;;
45368;SDS011;51342;55.250;37.668;2023-04-23T07:16:07;2.53;;;1.30;;
45368;SDS011;51342;55.250;37.668;2023-04-23T07:18:38;1.73;;;1.15;;
45368;SDS011;51342;55.250;37.668;2023-04-23T07:21:10;3.92;;;1.60;;
45368;SDS011;51342;55.250;37.668;2023-04-23T07:23:41;2.05;;;1.48;;
45368;SDS011;51342;55.250;37.668;2023-04-23T07:26:12;3.85;;;1.48;;
45368;SDS011;51342;55.250;37.668;2023-04-23T07:28:44;2.33;;;1.30;;
45368;SDS011;51342;55.250;37.668;2023-04-23T07:31:18;2.65;;;1.52;;
45368;SDS011;51342;55.250;37.668;2023-04-23T07:33:50;3.22;;;1.92;;
45368;SDS011;51342;55.250;37.668;2023-04-23T07:36:21;3.85;;;1.70;;
45368;SDS011;51342;55.250;37.668;2023-04-23T07:38:53;2.00;;;1.35;;
45368;SDS011;51342;55.250;37.668;2023-04-23T07:41:24;2.45;;;1.50;;
45368;SDS011;51342;55.250;37.668;2023-04-23T07:43:56;1.80;;;1.30;;
45368;SDS011;51342;55.250;37.668;2023-04-23T07:46:28;2.80;;;1.60;;
45368;SDS011;51342;55.250;37.668;2023-04-23T07:48:59;2.63;;;1.50;;
45368;SDS011;51342;55.250;37.668;2023-04-23T07:51:31;2.97;;;1.35;;
45368;SDS011;51342;55.250;37.668;2023-04-23T07:54:02;3.33;;;1.38;;
45368;SDS011;51342;55.250;37.668;2023-04-23T07:56:34;2.28;;;1.55;;
45368;SDS011;51342;55.250;37.668;2023-04-23T07:59:06;3.40;;;1.67;;
45368;SDS011;51342;55.250;37.668;2023-04-23T08:01:38;1.88;;;1.17;;
45368;SDS011;51342;55.250;37.668;2023-04-23T08:04:10;2.83;;;1.63;;
45368;SDS011;51342;55.250;37.668;2023-04-23T08:06:41;3.22;;;1.33;;
45368;SDS011;51342;55.250;37.668;2023-04-23T08:09:13;2.70;;;1.70;;
45368;SDS011;51342;55.250;37.668;2023-04-23T08:11:44;2.58;;;1.70;;
45368;SDS011;51342;55.250;37.668;2023-04-23T08:14:16;3.22;;;1.60;;
45368;SDS011;51342;55.250;37.668;2023-04-23T08:16:48;2.72;;;1.60;;
45368;SDS011;51342;55.250;37.668;2023-04-23T08:19:20;5.05;;;1.83;;
45368;SDS011;51342;55.250;37.668;2023-04-23T08:21:51;3.03;;;1.80;;
45368;SDS011;51342;55.250;37.668;2023-04-23T08:24:23;2.22;;;1.60;;
45368;SDS011;51342;55.250;37.668;2023-04-23T08:26:54;4.07;;;1.88;;
45368;SDS011;51342;55.250;37.668;2023-04-23T08:29:26;1.63;;;1.10;;
45368;SDS011;51342;55.250;37.668;2023-04-23T08:31:58;2.45;;;1.40;;
45368;SDS011;51342;55.250;37.668;2023-04-23T08:34:29;1.85;;;1.30;;
45368;SDS011;51342;55.250;37.668;2023-04-23T08:37:01;2.80;;;1.40;;
45368;SDS011;51342;55.250;37.668;2023-04-23T08:39:33;2.85;;;1.10;;
45368;SDS011;51342;55.250;37.668;2023-04-23T08:42:09;2.25;;;1.40;;
45368;SDS011;51342;55.250;37.668;2023-04-23T08:44:45;2.20;;;1.52;;
45368;SDS011;51342;55.250;37.668;2023-04-23T08:47:17;2.88;;;1.25;;
45368;SDS011;51342;55.250;37.668;2023-04-23T08:50:01;3.17;;;1.50;;
45368;SDS011;51342;55.250;37.668;2023-04-23T08:52:34;2.30;;;1.05;;
45368;SDS011;51342;55.250;37.668;2023-04-23T08:55:10;2.22;;;1.30;;
45368;SDS011;51342;55.250;37.668;2023-04-23T08:57:45;2.03;;;1.38;;
45368;SDS011;51342;55.250;37.668;2023-04-23T09:00:18;2.55;;;1.10;;
45368;SDS011;51342;55.250;37.668;2023-04-23T09:02:51;2.35;;;1.40;;
45368;SDS011;51342;55.250;37.668;2023-04-23T09:05:35;2.00;;;1.52;;
45368;SDS011;51342;55.250;37.668;2023-04-23T09:08:08;2.67;;;1.60;;
45368;SDS011;51342;55.250;37.668;2023-04-23T09:10:40;4.35;;;1.40;;
45368;SDS011;51342;55.250;37.668;2023-04-23T09:13:13;2.45;;;1.50;;
45368;SDS011;51342;55.250;37.668;2023-04-23T09:15:45;3.33;;;1.70;;
45368;SDS011;51342;55.250;37.668;2023-04-23T09:18:16;2.35;;;1.52;;
45368;SDS011;51342;55.250;37.668;2023-04-23T09:20:50;2.13;;;1.33;;
45368;SDS011;51342;55.250;37.668;2023-04-23T09:23:23;5.85;;;1.60;;
45368;SDS011;51342;55.250;37.668;2023-04-23T09:25:55;2.20;;;1.50;;
45368;SDS011;51342;55.250;37.668;2023-04-23T09:28:36;2.58;;;1.45;;
45368;SDS011;51342;55.250;37.668;2023-04-23T09:31:08;3.40;;;1.60;;
45368;SDS011;51342;55.250;37.668;2023-04-23T09:33:40;5.18;;;1.60;;
45368;SDS011;51342;55.250;37.668;2023-04-23T09:36:13;2.15;;;1.48;;
45368;SDS011;51342;55.250;37.668;2023-04-23T09:38:45;4.47;;;1.83;;
45368;SDS011;51342;55.250;37.668;2023-04-23T09:41:23;1.98;;;1.60;;
45368;SDS011;51342;55.250;37.668;2023-04-23T09:43:57;2.65;;;1.80;;
45368;SDS011;51342;55.250;37.668;2023-04-23T09:46:35;5.50;;;1.90;;
45368;SDS011;51342;55.250;37.668;2023-04-23T09:49:08;2.85;;;1.90;;
45368;SDS011;51342;55.250;37.668;2023-04-23T09:51:42;3.30;;;1.80;;
45368;SDS011;51342;55.250;37.668;2023-04-23T09:54:21;10.18;;;1.90;;
45368;SDS011;51342;55.250;37.668;2023-04-23T09:56:54;2.80;;;2.08;;
45368;SDS011;51342;55.250;37.668;2023-04-23T09:59:31;2.67;;;1.88;;
45368;SDS011;51342;55.250;37.668;2023-04-23T10:02:04;3.60;;;1.85;;
45368;SDS011;51342;55.250;37.668;2023-04-23T10:04:36;2.72;;;1.88;;
45368;SDS011;51342;55.250;37.668;2023-04-23T10:07:08;3.00;;;2.15;;
45368;SDS011;51342;55.250;37.668;2023-04-23T10:09:43;3.78;;;2.20;;
45368;SDS011;51342;55.250;37.668;2023-04-23T10:12:15;3.85;;;2.20;;
45368;SDS011;51342;55.250;37.668;2023-04-23T10:14:47;4.45;;;2.03;;
45368;SDS011;51342;55.250;37.668;2023-04-23T10:17:23;4.10;;;2.83;;
45368;SDS011;51342;55.250;37.668;2023-04-23T10:19:55;3.65;;;2.22;;
45368;SDS011;51342;55.250;37.668;2023-04-23T10:22:31;4.85;;;2.53;;
45368;SDS011;51342;55.250;37.668;2023-04-23T10:25:04;3.80;;;2.40;;
45368;SDS011;51342;55.250;37.668;2023-04-23T10:27:43;3.75;;;2.58;;
45368;SDS011;51342;55.250;37.668;2023-04-23T10:30:16;3.27;;;2.13;;
45368;SDS011;51342;55.250;37.668;2023-04-23T10:32:48;4.15;;;2.70;;
45368;SDS011;51342;55.250;37.668;2023-04-23T10:35:20;11.70;;;2.78;;
45368;SDS011;51342;55.250;37.668;2023-04-23T10:37:52;4.05;;;2.20;;
45368;SDS011;51342;55.250;37.668;2023-04-23T10:40:26;4.07;;;2.35;;
45368;SDS011;51342;55.250;37.668;2023-04-23T10:43:02;3.10;;;2.33;;
45368;SDS011;51342;55.250;37.668;2023-04-23T10:45:34;3.42;;;2.55;;
45368;SDS011;51342;55.250;37.668;2023-04-23T10:48:05;3.33;;;2.38;;
45368;SDS011;51342;55.250;37.668;2023-04-23T10:50:38;4.30;;;2.10;;
45368;SDS011;51342;55.250;37.668;2023-04-23T10:53:17;3.72;;;1.92;;
45368;SDS011;51342;55.250;37.668;2023-04-23T10:56:03;2.95;;;2.25;;
45368;SDS011;51342;55.250;37.668;2023-04-23T10:58:49;4.28;;;2.17;;
45368;SDS011;51342;55.250;37.668;2023-04-23T11:01:25;3.65;;;2.20;;
45368;SDS011;51342;55.250;37.668;2023-04-23T11:03:58;3.03;;;2.30;;
45368;SDS011;51342;55.250;37.668;2023-04-23T11:06:51;6.03;;;2.58;;
45368;SDS011;51342;55.250;37.668;2023-04-23T11:09:35;4.97;;;2.50;;
45368;SDS011;51342;55.250;37.668;2023-04-23T11:12:51;3.53;;;2.20;;
45368;SDS011;51342;55.250;37.668;2023-04-23T11:15:13;5.10;;;2.42;;
45368;SDS011;51342;55.250;37.668;2023-04-23T11:20:18;5.50;;;2.40;;
45368;SDS011;51342;55.250;37.668;2023-04-23T11:22:51;2.83;;;2.30;;
45368;SDS011;51342;55.250;37.668;2023-04-23T11:25:23;4.10;;;2.35;;
45368;SDS011;51342;55.250;37.668;2023-04-23T11:27:56;3.17;;;2.33;;
45368;SDS011;51342;55.250;37.668;2023-04-23T11:30:40;3.75;;;2.38;;
45368;SDS011;51342;55.250;37.668;2023-04-23T11:33:11;4.05;;;2.00;;
45368;SDS011;51342;55.250;37.668;2023-04-23T11:35:43;4.55;;;2.40;;
45368;SDS011;51342;55.250;37.668;2023-04-23T11:38:15;3.35;;;2.15;;
45368;SDS011;51342;55.250;37.668;2023-04-23T11:40:46;2.85;;;1.98;;
45368;SDS011;51342;55.250;37.668;2023-04-23T11:43:18;2.97;;;2.00;;
45368;SDS011;51342;55.250;37.668;2023-04-23T11:45:51;2.85;;;1.92;;
45368;SDS011;51342;55.250;37.668;2023-04-23T11:48:22;3.33;;;2.15;;
45368;SDS011;51342;55.250;37.668;2023-04-23T11:50:54;2.70;;;1.63;;
45368;SDS011;51342;55.250;37.668;2023-04-23T11:53:26;3.70;;;2.03;;
45368;SDS011;51342;55.250;37.668;2023-04-23T11:55:57;3.53;;;2.00;;
45368;SDS011;51342;55.250;37.668;2023-04-23T11:58:29;3.63;;;1.73;;
45368;SDS011;51342;55.250;37.668;2023-04-23T12:01:01;2.95;;;1.80;;
45368;SDS011;51342;55.250;37.668;2023-04-23T12:03:32;2.50;;;1.80;;
45368;SDS011;51342;55.250;37.668;2023-04-23T12:06:04;2.40;;;1.80;;
45368;SDS011;51342;55.250;37.668;2023-04-23T12:08:36;5.57;;;1.90;;
45368;SDS011;51342;55.250;37.668;2023-04-23T12:11:10;2.60;;;1.90;;
45368;SDS011;51342;55.250;37.668;2023-04-23T12:13:41;3.97;;;2.10;;
45368;SDS011;51342;55.250;37.668;2023-04-23T12:16:15;5.95;;;2.38;;
45368;SDS011;51342;55.250;37.668;2023-04-23T12:18:52;3.03;;;2.00;;
45368;SDS011;51342;55.250;37.668;2023-04-23T12:23:56;3.65;;;1.73;;
45368;SDS011;51342;55.250;37.668;2023-04-23T12:26:30;9.57;;;3.05;;
45368;SDS011;51342;55.250;37.668;2023-04-23T12:29:02;3.75;;;2.03;;
45368;SDS011;51342;55.250;37.668;2023-04-23T12:31:35;3.40;;;1.83;;
45368;SDS011;51342;55.250;37.668;2023-04-23T12:34:08;4.10;;;2.20;;
45368;SDS011;51342;55.250;37.668;2023-04-23T12:36:43;2.72;;;2.00;;
45368;SDS011;51342;55.250;37.668;2023-04-23T12:39:29;3.72;;;2.00;;
45368;SDS011;51342;55.250;37.668;2023-04-23T12:42:03;4.43;;;2.15;;
45368;SDS011;51342;55.250;37.668;2023-04-23T12:44:37;4.45;;;2.33;;
45368;SDS011;51342;55.250;37.668;2023-04-23T12:47:09;3.88;;;2.40;;
45368;SDS011;51342;55.250;37.668;2023-04-23T12:49:41;3.00;;;2.20;;
45368;SDS011;51342;55.250;37.668;2023-04-23T12:52:13;2.97;;;2.60;;
45368;SDS011;51342;55.250;37.668;2023-04-23T12:54:46;5.25;;;3.15;;
45368;SDS011;51342;55.250;37.668;2023-04-23T12:57:21;6.13;;;3.65;;
45368;SDS011;51342;55.250;37.668;2023-04-23T12:59:54;3.88;;;3.17;;
45368;SDS011;51342;55.250;37.668;2023-04-23T13:02:25;5.68;;;3.55;;
45368;SDS011;51342;55.250;37.668;2023-04-23T13:05:09;4.72;;;3.45;;
45368;SDS011;51342;55.250;37.668;2023-04-23T13:07:41;4.85;;;3.90;;
45368;SDS011;51342;55.250;37.668;2023-04-23T13:10:13;4.97;;;3.78;;
45368;SDS011;51342;55.250;37.668;2023-04-23T13:12:45;4.82;;;3.63;;
45368;SDS011;51342;55.250;37.668;2023-04-23T13:15:16;4.00;;;3.20;;
45368;SDS011;51342;55.250;37.668;2023-04-23T13:17:48;5.45;;;3.65;;
45368;SDS011;51342;55.250;37.668;2023-04-23T13:20:21;5.00;;;3.67;;
45368;SDS011;51342;55.250;37.668;2023-04-23T13:22:55;4.15;;;3.38;;
45368;SDS011;51342;55.250;37.668;2023-04-23T13:25:26;5.40;;;3.50;;
45368;SDS011;51342;55.250;37.668;2023-04-23T13:27:57;4.88;;;3.08;;
45368;SDS011;51342;55.250;37.668;2023-04-23T13:30:29;4.78;;;3.42;;
45368;SDS011;51342;55.250;37.668;2023-04-23T13:33:00;4.80;;;3.25;;
45368;SDS011;51342;55.250;37.668;2023-04-23T13:35:32;4.10;;;3.00;;
45368;SDS011;51342;55.250;37.668;2023-04-23T13:38:07;5.38;;;3.30;;
45368;SDS011;51342;55.250;37.668;2023-04-23T13:40:39;3.92;;;2.67;;
45368;SDS011;51342;55.250;37.668;2023-04-23T13:43:10;5.32;;;2.95;;
45368;SDS011;51342;55.250;37.668;2023-04-23T13:45:42;3.60;;;2.30;;
45368;SDS011;51342;55.250;37.668;2023-04-23T13:48:14;3.00;;;2.58;;
45368;SDS011;51342;55.250;37.668;2023-04-23T13:50:46;4.28;;;2.50;;
45368;SDS011;51342;55.250;37.668;2023-04-23T13:53:17;4.40;;;2.53;;
45368;SDS011;51342;55.250;37.668;2023-04-23T13:55:48;5.18;;;2.80;;
45368;SDS011;51342;55.250;37.668;2023-04-23T13:58:20;6.95;;;4.25;;
45368;SDS011;51342;55.250;37.668;2023-04-23T14:00:52;7.85;;;4.18;;
45368;SDS011;51342;55.250;37.668;2023-04-23T14:03:24;5.53;;;4.20;;
45368;SDS011;51342;55.250;37.668;2023-04-23T14:05:55;5.13;;;4.10;;
45368;SDS011;51342;55.250;37.668;2023-04-23T14:08:28;6.60;;;4.50;;
45368;SDS011;51342;55.250;37.668;2023-04-23T14:10:59;5.78;;;4.20;;
45368;SDS011;51342;55.250;37.668;2023-04-23T14:13:32;4.85;;;3.30;;
45368;SDS011;51342;55.250;37.668;2023-04-23T14:16:03;4.53;;;3.10;;
45368;SDS011;51342;55.250;37.668;2023-04-23T14:18:35;3.92;;;2.92;;
45368;SDS011;51342;55.250;37.668;2023-04-23T14:21:07;5.57;;;2.80;;
45368;SDS011;51342;55.250;37.668;2023-04-23T14:23:54;3.15;;;2.20;;
45368;SDS011;51342;55.250;37.668;2023-04-23T14:26:33;3.88;;;2.35;;
45368;SDS011;51342;55.250;37.668;2023-04-23T14:29:09;2.95;;;2.05;;
45368;SDS011;51342;55.250;37.668;2023-04-23T14:31:49;3.55;;;2.25;;
45368;SDS011;51342;55.250;37.668;2023-04-23T14:34:21;3.95;;;2.22;;
45368;SDS011;51342;55.250;37.668;2023-04-23T14:36:53;3.22;;;2.83;;
45368;SDS011;51342;55.250;37.668;2023-04-23T14:39:24;4.50;;;2.85;;
45368;SDS011;51342;55.250;37.668;2023-04-23T14:42:08;6.07;;;2.55;;
45368;SDS011;51342;55.250;37.668;2023-04-23T14:44:40;5.18;;;3.13;;
45368;SDS011;51342;55.250;37.668;2023-04-23T14:47:11;4.57;;;2.60;;
45368;SDS011;51342;55.250;37.668;2023-04-23T14:49:44;4.28;;;3.22;;
45368;SDS011;51342;55.250;37.668;2023-04-23T14:52:29;3.80;;;2.92;;
45368;SDS011;51342;55.250;37.668;2023-04-23T14:55:01;4.32;;;2.85;;
45368;SDS011;51342;55.250;37.668;2023-04-23T14:57:33;6.80;;;3.13;;
45368;SDS011;51342;55.250;37.668;2023-04-23T15:00:05;6.28;;;3.13;;
45368;SDS011;51342;55.250;37.668;2023-04-23T15:02:41;2.97;;;2.65;;
45368;SDS011;51342;55.250;37.668;2023-04-23T15:05:15;4.45;;;3.20;;
45368;SDS011;51342;55.250;37.668;2023-04-23T15:07:47;5.40;;;2.83;;
45368;SDS011;51342;55.250;37.668;2023-04-23T15:10:18;4.13;;;2.60;;
45368;SDS011;51342;55.250;37.668;2023-04-23T15:15:26;3.90;;;2.60;;